createdAt,value
2022-10-13T00:00:55.520Z,16.44
2022-10-13T00:04:58.295Z,16.13
2022-10-13T00:08:59.263Z,16.17
2022-10-13T00:12:59.398Z,16.13
2022-10-13T00:16:59.538Z,16.02
2022-10-13T00:21:02.495Z,16.16
2022-10-13T00:25:02.756Z,16.20
2022-10-13T00:29:02.868Z,16.32
2022-10-13T00:33:03.023Z,16.37
2022-10-13T00:37:05.973Z,16.23
2022-10-13T00:41:06.724Z,16.03
2022-10-13T00:45:25.269Z,16.03
2022-10-13T00:49:25.432Z,15.98
2022-10-13T00:53:35.706Z,15.92
2022-10-13T00:57:36.569Z,16.10
2022-10-13T01:01:38.059Z,15.96
2022-10-13T01:05:39.091Z,15.92
2022-10-13T01:09:42.572Z,16.33
2022-10-13T01:13:53.148Z,16.46
2022-10-13T01:18:06.546Z,16.79
2022-10-13T01:22:23.638Z,17.12
2022-10-13T01:27:04.072Z,17.17
2022-10-13T01:31:16.372Z,17.33
2022-10-13T01:35:23.609Z,17.50
2022-10-13T01:39:40.989Z,17.62
2022-10-13T01:43:48.928Z,17.57
2022-10-13T01:47:55.223Z,17.57
2022-10-13T01:51:57.799Z,17.84
2022-10-13T01:56:00.793Z,17.91
2022-10-13T02:00:04.019Z,18.09
2022-10-13T02:04:32.013Z,17.99
2022-10-13T02:08:43.079Z,18.12
2022-10-13T02:12:52.481Z,18.10
2022-10-13T02:16:56.005Z,18.22
2022-10-13T02:20:59.464Z,18.30
2022-10-13T02:24:59.977Z,18.28
2022-10-13T02:29:00.756Z,18.30
2022-10-13T02:33:00.896Z,18.14
2022-10-13T02:37:06.745Z,17.94
2022-10-13T02:41:06.971Z,17.76
2022-10-13T02:45:08.877Z,17.68
2022-10-13T02:49:09.034Z,17.67
2022-10-13T02:53:11.836Z,17.80
2022-10-13T02:57:11.973Z,17.84
2022-10-13T03:01:15.069Z,17.96
2022-10-13T03:05:15.298Z,17.96
2022-10-13T03:09:18.158Z,18.01
2022-10-13T03:13:18.343Z,18.13
2022-10-13T03:17:18.666Z,18.26
2022-10-13T03:21:18.825Z,18.51
2022-10-13T03:25:21.575Z,18.52
2022-10-13T03:29:25.456Z,18.58
2022-10-13T03:33:25.545Z,18.66
2022-10-13T03:37:33.107Z,18.57
2022-10-13T03:41:36.117Z,18.51
2022-10-13T03:45:36.229Z,18.42
2022-10-13T03:49:36.800Z,18.34
2022-10-13T03:53:37.569Z,18.35
2022-10-13T03:57:40.354Z,18.40
2022-10-13T04:01:40.661Z,18.26
2022-10-13T04:05:40.889Z,18.31
2022-10-13T04:09:41.100Z,18.29
2022-10-13T04:13:45.417Z,18.60
2022-10-13T04:17:45.709Z,18.57
2022-10-13T04:21:46.696Z,18.66
2022-10-13T04:25:46.927Z,18.78
2022-10-13T04:29:49.928Z,18.76
2022-10-13T04:33:50.358Z,18.76
2022-10-13T04:37:50.544Z,18.80
2022-10-13T04:41:50.801Z,18.62
2022-10-13T04:45:53.547Z,18.62
2022-10-13T04:49:53.660Z,18.30
2022-10-13T04:53:58.585Z,18.53
2022-10-13T04:57:58.758Z,18.38
2022-10-13T05:02:03.335Z,18.25
2022-10-13T05:06:04.294Z,18.26
2022-10-13T05:10:04.542Z,18.28
2022-10-13T05:14:05.025Z,18.21
2022-10-13T05:18:07.853Z,18.36
2022-10-13T05:22:08.034Z,18.42
2022-10-13T05:26:11.457Z,18.47
2022-10-13T05:30:13.909Z,18.58
2022-10-13T05:34:16.797Z,18.59
2022-10-13T05:38:16.921Z,18.42
2022-10-13T05:42:17.369Z,18.62
2022-10-13T05:46:18.526Z,18.72
2022-10-13T05:50:21.368Z,18.78
2022-10-13T05:54:26.724Z,19.01
2022-10-13T05:58:27.733Z,19.15
2022-10-13T06:02:37.850Z,19.03
2022-10-13T06:06:40.925Z,19.17
2022-10-13T06:17:17.118Z,18.90
2022-10-13T06:21:18.273Z,18.71
2022-10-13T06:25:21.054Z,19.06
2022-10-13T06:29:21.230Z,19.29
2022-10-13T06:33:21.325Z,19.59
2022-10-13T06:37:26.952Z,19.93
2022-10-13T06:41:30.170Z,20.26
2022-10-13T06:45:30.376Z,20.35
2022-10-13T06:49:30.537Z,20.41
2022-10-13T06:53:30.990Z,20.28
2022-10-13T06:57:33.763Z,20.55
2022-10-13T07:01:41.593Z,20.46
2022-10-13T07:05:45.640Z,20.67
2022-10-13T07:09:45.911Z,20.50
2022-10-13T07:13:51.987Z,20.86
2022-10-13T07:17:56.172Z,20.90
2022-10-13T07:21:57.726Z,20.03
2022-10-13T07:25:59.527Z,19.73
2022-10-13T07:30:23.315Z,19.69
2022-10-13T07:34:35.832Z,20.09
2022-10-13T07:39:05.261Z,19.30
2022-10-13T07:43:09.631Z,19.45
2022-10-13T07:47:14.952Z,20.22
2022-10-13T07:51:22.090Z,20.70
2022-10-13T07:55:30.178Z,20.48
2022-10-13T07:59:36.811Z,21.12
2022-10-13T08:03:50.908Z,20.56
2022-10-13T08:08:21.190Z,21.65
2022-10-13T08:13:03.663Z,21.21
2022-10-13T08:17:05.379Z,21.11
2022-10-13T08:26:03.794Z,21.62
2022-10-13T08:30:06.359Z,22.37
2022-10-13T08:34:07.841Z,22.21
2022-10-13T08:38:10.911Z,22.23
2022-10-13T08:42:19.143Z,21.95
2022-10-13T08:46:28.430Z,21.84
2022-10-13T08:50:33.225Z,21.60
2022-10-13T08:54:41.968Z,21.40
2022-10-13T08:58:48.249Z,21.48
2022-10-13T09:02:53.717Z,21.90
2022-10-13T09:07:02.571Z,22.07
2022-10-13T09:11:19.112Z,23.16
2022-10-13T09:15:24.426Z,23.16
2022-10-13T09:19:34.189Z,23.18
2022-10-13T09:23:38.214Z,22.85
2022-10-13T09:28:08.096Z,23.56
2022-10-13T09:32:31.104Z,23.86
2022-10-13T09:36:32.797Z,24.16
2022-10-13T09:40:33.666Z,23.41
2022-10-13T09:44:39.991Z,22.43
2022-10-13T09:48:50.729Z,22.62
2022-10-13T09:52:52.290Z,22.50
2022-10-13T09:57:02.248Z,22.93
2022-10-13T10:01:09.062Z,21.66
2022-10-13T10:05:26.514Z,22.27
2022-10-13T10:09:42.002Z,21.74
2022-10-13T10:13:43.426Z,22.89
2022-10-13T10:17:56.704Z,22.94
2022-10-13T10:22:10.467Z,22.21
2022-10-13T10:26:24.252Z,22.60
2022-10-13T10:30:27.819Z,22.55
2022-10-13T10:34:58.346Z,22.50
2022-10-13T10:39:11.207Z,21.99
2022-10-13T10:43:47.139Z,23.28
2022-10-13T10:47:55.691Z,23.30
2022-10-13T10:52:02.158Z,23.77
2022-10-13T10:56:17.022Z,23.67
2022-10-13T11:00:22.427Z,23.69
2022-10-13T11:04:41.836Z,23.75
2022-10-13T11:08:57.057Z,23.33
2022-10-13T11:13:30.989Z,23.05
2022-10-13T11:23:18.063Z,22.82
2022-10-13T11:27:48.926Z,23.08
2022-10-13T11:32:03.339Z,23.61
2022-10-13T11:36:59.097Z,22.43
2022-10-13T11:41:55.673Z,22.47
2022-10-13T11:46:30.700Z,23.58
2022-10-13T11:50:50.965Z,24.32
2022-10-13T11:55:19.433Z,24.58
2022-10-13T11:59:54.595Z,24.02
2022-10-13T12:04:15.465Z,24.31
2022-10-13T12:08:53.225Z,23.74
2022-10-13T12:13:33.647Z,23.08
2022-10-13T12:17:52.588Z,22.98
2022-10-13T12:22:09.564Z,22.73
2022-10-13T12:26:56.853Z,22.46
2022-10-13T12:31:11.596Z,22.06
2022-10-13T12:35:34.950Z,23.20
2022-10-13T12:40:24.773Z,22.24
2022-10-13T12:44:34.583Z,22.26
2022-10-13T12:48:38.497Z,22.77
2022-10-13T12:52:40.909Z,22.34
2022-10-13T12:56:46.257Z,23.15
2022-10-13T13:00:46.466Z,23.15
2022-10-13T13:04:47.298Z,23.39
2022-10-13T13:08:47.494Z,23.59
2022-10-13T13:12:53.162Z,23.55
2022-10-13T13:17:07.642Z,23.55
2022-10-13T13:21:09.839Z,23.62
2022-10-13T13:25:14.113Z,23.44
2022-10-13T13:29:17.116Z,23.30
2022-10-13T13:33:17.320Z,23.50
2022-10-13T13:37:27.441Z,23.80
2022-10-13T13:41:31.075Z,23.81
2022-10-13T13:45:37.439Z,23.52
2022-10-13T13:49:40.306Z,23.47
2022-10-13T13:53:40.692Z,23.15
2022-10-13T13:57:46.721Z,23.44
2022-10-13T14:01:52.523Z,23.51
2022-10-13T14:05:58.443Z,23.76
2022-10-13T14:10:01.960Z,23.47
2022-10-13T14:14:08.935Z,23.46
2022-10-13T14:18:13.503Z,23.35
2022-10-13T14:22:13.592Z,23.62
2022-10-13T14:26:13.798Z,23.68
2022-10-13T14:30:16.283Z,23.73
2022-10-13T14:34:19.101Z,23.86
2022-10-13T14:38:19.233Z,23.93
2022-10-13T14:42:21.343Z,24.13
2022-10-13T14:46:21.618Z,23.49
2022-10-13T14:50:24.433Z,23.18
2022-10-13T14:54:29.244Z,23.23
2022-10-13T14:58:29.382Z,22.81
2022-10-13T15:02:29.792Z,22.61
2022-10-13T15:06:32.752Z,22.84
2022-10-13T15:10:33.602Z,22.97
2022-10-13T15:14:34.485Z,22.94
2022-10-13T15:18:36.184Z,23.22
2022-10-13T15:22:39.055Z,23.28
2022-10-13T15:26:42.462Z,23.31
2022-10-13T15:30:42.770Z,23.07
2022-10-13T15:34:43.254Z,23.09
2022-10-13T15:38:46.153Z,22.71
2022-10-13T15:42:46.241Z,22.64
2022-10-13T15:47:06.693Z,22.58
2022-10-13T15:51:17.109Z,22.51
2022-10-13T15:55:20.833Z,22.19
2022-10-13T15:59:21.170Z,22.10
2022-10-13T16:03:21.914Z,22.21
2022-10-13T16:07:22.755Z,22.04
2022-10-13T16:11:27.683Z,21.94
2022-10-13T16:15:29.218Z,21.75
2022-10-13T16:19:29.518Z,21.53
2022-10-13T16:23:29.807Z,21.76
2022-10-13T16:27:32.651Z,21.63
2022-10-13T16:31:33.319Z,21.54
2022-10-13T16:35:34.373Z,21.33
2022-10-13T16:39:36.533Z,21.27
2022-10-13T16:43:43.209Z,21.21
2022-10-13T16:47:43.307Z,21.07
2022-10-13T16:51:43.594Z,20.93
2022-10-13T16:55:43.820Z,20.60
2022-10-13T16:59:48.461Z,20.62
2022-10-13T17:03:50.356Z,20.88
2022-10-13T17:07:50.495Z,20.37
2022-10-13T17:11:50.775Z,20.63
2022-10-13T17:15:59.246Z,20.48
2022-10-13T17:19:59.502Z,20.28
2022-10-13T17:23:59.781Z,20.36
2022-10-13T17:27:59.940Z,20.18
2022-10-13T17:32:02.778Z,20.38
2022-10-13T17:36:04.605Z,20.47
2022-10-13T17:40:04.877Z,20.52
2022-10-13T17:44:05.440Z,20.64
2022-10-13T17:48:08.522Z,20.80
2022-10-13T17:52:09.279Z,20.92
2022-10-13T17:56:13.529Z,21.14
2022-10-13T18:00:16.457Z,21.12
2022-10-13T18:04:22.455Z,20.96
2022-10-13T18:08:22.792Z,21.09
2022-10-13T18:12:23.496Z,21.05
2022-10-13T18:16:26.394Z,20.81
2022-10-13T18:20:29.124Z,20.54
2022-10-13T18:24:29.287Z,20.51
2022-10-13T18:28:33.388Z,20.63
2022-10-13T18:32:33.829Z,20.64
2022-10-13T18:36:39.032Z,20.50
2022-10-13T18:40:41.637Z,20.51
2022-10-13T18:44:41.821Z,20.33
2022-10-13T18:48:42.294Z,20.27
2022-10-13T18:52:45.067Z,20.35
2022-10-13T18:56:45.379Z,20.44
2022-10-13T19:00:45.635Z,20.43
2022-10-13T19:04:45.782Z,20.35
2022-10-13T19:08:49.736Z,20.22
2022-10-13T19:12:50.082Z,20.01
2022-10-13T19:16:55.235Z,20.06
2022-10-13T19:21:01.612Z,20.02
2022-10-13T19:25:04.457Z,20.08
2022-10-13T19:29:08.748Z,20.15
2022-10-13T19:33:11.324Z,20.28
2022-10-13T19:37:20.467Z,19.98
2022-10-13T19:41:23.984Z,19.98
2022-10-13T19:45:24.198Z,20.04
2022-10-13T19:49:27.446Z,19.63
2022-10-13T19:53:29.701Z,19.34
2022-10-13T19:57:32.489Z,19.46
2022-10-13T20:01:32.957Z,19.43
2022-10-13T20:05:33.715Z,19.45
2022-10-13T20:09:33.923Z,19.32
2022-10-13T20:13:36.817Z,19.43
2022-10-13T20:17:37.036Z,19.47
2022-10-13T20:21:37.333Z,19.52
2022-10-13T20:25:40.008Z,19.54
2022-10-13T20:29:42.883Z,19.62
2022-10-13T20:33:43.863Z,19.78
2022-10-13T20:37:44.033Z,19.82
2022-10-13T20:41:44.319Z,19.81
2022-10-13T20:45:48.955Z,19.85
2022-10-13T20:49:49.072Z,19.79
2022-10-13T20:53:51.227Z,19.74
2022-10-13T20:57:54.299Z,19.67
2022-10-13T21:01:57.118Z,19.68
2022-10-13T21:05:59.180Z,19.47
2022-10-13T21:09:59.285Z,19.35
2022-10-13T21:14:00.177Z,19.38
2022-10-13T21:18:02.971Z,19.32
2022-10-13T21:22:03.060Z,19.07
2022-10-13T21:26:05.463Z,18.78
2022-10-13T21:30:06.294Z,18.87
2022-10-13T21:34:09.099Z,18.84
2022-10-13T21:38:09.218Z,18.68
2022-10-13T21:42:10.427Z,18.59
2022-10-13T21:46:15.840Z,18.50
2022-10-13T21:50:18.849Z,18.42
2022-10-13T21:54:19.584Z,18.56
2022-10-13T21:58:19.731Z,18.63
2022-10-13T22:02:19.948Z,18.68
2022-10-13T22:06:23.426Z,18.63
2022-10-13T22:10:23.631Z,18.70
2022-10-13T22:14:25.175Z,18.59
2022-10-13T22:18:28.290Z,18.67
2022-10-13T22:22:31.251Z,18.29
2022-10-13T22:26:34.640Z,18.73
2022-10-13T22:30:34.804Z,18.76
2022-10-13T22:34:37.048Z,18.81
2022-10-13T22:38:40.033Z,18.74
2022-10-13T22:42:40.172Z,18.74
2022-10-13T22:46:42.549Z,18.78
2022-10-13T22:50:46.643Z,18.37
2022-10-13T22:54:49.433Z,18.69
2022-10-13T22:58:53.386Z,18.78
2022-10-13T23:02:53.620Z,18.89
2022-10-13T23:06:53.814Z,18.89
2022-10-13T23:10:57.409Z,19.04
2022-10-13T23:14:57.607Z,18.97
2022-10-13T23:18:58.429Z,18.80
2022-10-13T23:22:58.526Z,19.03
2022-10-13T23:27:01.467Z,19.01
2022-10-13T23:31:03.461Z,19.01
2022-10-13T23:35:03.705Z,18.93
2022-10-13T23:39:10.275Z,18.87
2022-10-13T23:43:13.141Z,18.91
2022-10-13T23:47:14.849Z,18.98
2022-10-13T23:51:19.328Z,19.00
2022-10-13T23:55:19.552Z,18.99
2022-10-13T23:59:22.245Z,18.86
